Time;durP1;ratioP1;P1;durP2;ratioP2;P2;SDS_P1;SDS_P2;PMS_P1;PMS_P2;Temp;Humidity;BMP_temperature;BMP_pressure;BME280_temperature;BME280_humidity;BME280_pressure;Samples;Min_cycle;Max_cycle;Signal;HPM_P1;HPM_P2
2021/10/03 00:01:08;;;;;;;6.83;4.60;;;12.60;82.00;;;;;;1882486;75;21115;-48
2021/10/03 00:03:41;;;;;;;9.13;5.20;;;12.50;82.20;;;;;;1882431;75;21028;-47
2021/10/03 00:06:11;;;;;;;11.33;5.92;;;12.50;82.20;;;;;;1882137;76;21078;-49
2021/10/03 00:08:41;;;;;;;9.58;4.85;;;12.50;82.30;;;;;;1882441;76;21100;-49
2021/10/03 00:11:11;;;;;;;8.50;4.70;;;12.50;82.50;;;;;;1882400;76;21032;-46
2021/10/03 00:13:41;;;;;;;8.60;4.62;;;12.50;82.40;;;;;;1882348;75;21029;-50
2021/10/03 00:16:10;;;;;;;13.78;5.00;;;12.50;82.40;;;;;;1882493;75;21031;-50
2021/10/03 00:18:41;;;;;;;9.15;4.67;;;12.50;82.50;;;;;;1882395;76;21099;-49
2021/10/03 00:21:11;;;;;;;9.95;5.00;;;12.50;82.60;;;;;;1882389;76;21032;-49
2021/10/03 00:23:40;;;;;;;7.03;4.70;;;12.40;82.50;;;;;;1882387;76;21036;-46
2021/10/03 00:26:10;;;;;;;10.08;4.90;;;12.40;82.50;;;;;;1882339;75;21024;-50
2021/10/03 00:28:40;;;;;;;6.17;5.25;;;12.40;82.80;;;;;;1882292;76;21044;-49
2021/10/03 00:31:09;;;;;;;9.33;4.20;;;12.40;82.70;;;;;;1882472;75;21036;-46
2021/10/03 00:33:39;;;;;;;8.78;4.42;;;12.40;82.80;;;;;;1882390;76;21024;-47
2021/10/03 00:36:08;;;;;;;10.10;4.60;;;12.40;82.70;;;;;;1882433;76;21451;-49
2021/10/03 00:38:37;;;;;;;12.33;4.75;;;12.40;82.70;;;;;;1882335;75;21032;-51
2021/10/03 00:41:07;;;;;;;9.18;3.90;;;12.40;82.60;;;;;;1882440;75;21040;-46
2021/10/03 00:43:37;;;;;;;9.03;4.40;;;12.40;82.60;;;;;;1882449;75;21040;-48
2021/10/03 00:46:07;;;;;;;7.97;4.78;;;12.40;82.70;;;;;;1882325;75;21032;-46
2021/10/03 00:48:36;;;;;;;8.68;4.47;;;12.40;82.70;;;;;;1882244;76;21036;-49
2021/10/03 00:51:06;;;;;;;8.63;5.05;;;12.40;82.90;;;;;;1882240;75;21048;-46
2021/10/03 00:53:35;;;;;;;8.15;4.42;;;12.40;83.40;;;;;;1882330;76;21037;-50
2021/10/03 00:56:05;;;;;;;6.95;4.60;;;12.30;82.70;;;;;;1882327;75;21088;-48
2021/10/03 00:58:35;;;;;;;5.47;4.47;;;12.30;82.90;;;;;;1882387;75;21075;-47
2021/10/03 01:01:04;;;;;;;7.83;4.45;;;12.30;82.90;;;;;;1882330;75;21068;-47
2021/10/03 01:03:35;;;;;;;5.67;4.30;;;12.30;82.90;;;;;;1882408;75;21030;-46
2021/10/03 01:06:06;;;;;;;8.80;4.35;;;12.40;83.00;;;;;;1882443;75;21083;-50
2021/10/03 01:08:36;;;;;;;6.47;4.30;;;12.30;82.90;;;;;;1882309;75;21470;-47
2021/10/03 01:11:06;;;;;;;7.00;5.00;;;12.30;82.80;;;;;;1882192;75;21052;-46
2021/10/03 01:13:36;;;;;;;5.50;4.65;;;12.30;82.70;;;;;;1882332;76;21028;-47
2021/10/03 01:16:07;;;;;;;6.50;4.50;;;12.30;82.90;;;;;;1882270;75;21114;-47
2021/10/03 01:18:36;;;;;;;8.33;4.30;;;12.30;83.00;;;;;;1882243;76;21028;-46
2021/10/03 01:21:08;;;;;;;6.30;4.28;;;12.30;82.90;;;;;;1882314;75;21185;-48
2021/10/03 01:23:38;;;;;;;6.83;4.60;;;12.20;83.00;;;;;;1882285;75;21028;-48
2021/10/03 01:26:07;;;;;;;6.30;4.53;;;12.20;83.00;;;;;;1882217;76;21098;-49
2021/10/03 01:28:37;;;;;;;7.08;4.47;;;12.30;82.90;;;;;;1882231;75;21020;-48
2021/10/03 01:31:09;;;;;;;8.65;4.85;;;12.30;83.00;;;;;;1882274;75;21136;-49
2021/10/03 01:33:38;;;;;;;6.08;3.77;;;12.30;82.90;;;;;;1882535;75;21047;-50
2021/10/03 01:36:09;;;;;;;6.92;4.28;;;12.30;82.80;;;;;;1882365;75;21028;-47
2021/10/03 01:38:39;;;;;;;5.90;4.85;;;12.30;83.40;;;;;;1882356;75;21032;-48
2021/10/03 01:41:09;;;;;;;7.20;3.80;;;12.20;83.00;;;;;;1882389;75;21177;-47
2021/10/03 01:43:38;;;;;;;8.25;4.12;;;12.20;83.10;;;;;;1882439;75;21075;-48
2021/10/03 01:46:08;;;;;;;10.53;5.30;;;12.20;82.80;;;;;;1882426;75;21024;-48
2021/10/03 01:48:37;;;;;;;12.80;4.92;;;12.20;82.90;;;;;;1882418;75;21032;-48
2021/10/03 01:51:09;;;;;;;11.93;4.67;;;12.20;82.90;;;;;;1882350;75;21119;-48
2021/10/03 01:53:44;;;;;;;6.83;4.12;;;12.10;82.90;;;;;;1882329;76;21032;-49
2021/10/03 01:56:14;;;;;;;8.08;3.85;;;12.10;82.90;;;;;;1882165;76;21095;-50
2021/10/03 01:58:46;;;;;;;5.72;3.80;;;12.10;82.90;;;;;;1882474;76;21024;-49
2021/10/03 02:01:18;;;;;;;10.20;3.80;;;12.10;82.80;;;;;;1882184;75;21106;-46
2021/10/03 02:03:48;;;;;;;7.17;4.35;;;12.00;82.90;;;;;;1882487;76;21455;-47
2021/10/03 02:06:18;;;;;;;4.72;3.77;;;12.00;82.80;;;;;;1882342;75;21142;-48
2021/10/03 02:08:52;;;;;;;5.22;4.47;;;12.00;82.80;;;;;;1882274;75;21032;-50
2021/10/03 02:11:24;;;;;;;6.40;4.33;;;12.00;82.80;;;;;;1882057;75;21186;-48
2021/10/03 02:13:54;;;;;;;10.18;4.50;;;12.00;82.70;;;;;;1882371;75;21058;-50
2021/10/03 02:16:23;;;;;;;6.87;4.30;;;12.00;82.70;;;;;;1882303;75;21051;-49
2021/10/03 02:18:54;;;;;;;8.43;4.58;;;12.00;82.70;;;;;;1882438;75;21028;-49
2021/10/03 02:21:23;;;;;;;5.37;3.85;;;12.00;82.60;;;;;;1882382;75;21001;-49
2021/10/03 02:23:53;;;;;;;5.90;4.00;;;12.00;82.70;;;;;;1882335;75;21004;-50
2021/10/03 02:26:22;;;;;;;16.73;4.35;;;12.00;82.70;;;;;;1882580;75;21094;-49
2021/10/03 02:28:52;;;;;;;7.50;4.25;;;11.90;82.60;;;;;;1882268;75;21028;-48
2021/10/03 02:31:21;;;;;;;8.15;4.58;;;11.90;82.50;;;;;;1882361;75;21064;-48
2021/10/03 02:33:51;;;;;;;4.20;3.67;;;11.90;82.60;;;;;;1882362;76;21052;-46
2021/10/03 02:36:23;;;;;;;9.38;3.90;;;11.90;82.60;;;;;;1882347;76;21044;-48
2021/10/03 02:38:53;;;;;;;11.55;4.22;;;11.90;82.60;;;;;;1882347;75;21024;-49
2021/10/03 02:41:23;;;;;;;4.28;3.87;;;11.90;82.40;;;;;;1882274;76;21029;-48
2021/10/03 02:43:55;;;;;;;7.15;3.80;;;11.90;82.30;;;;;;1860039;76;21036;-49
2021/10/03 02:46:25;;;;;;;5.65;4.28;;;11.90;82.40;;;;;;1882456;75;21514;-46
2021/10/03 02:48:55;;;;;;;6.42;3.90;;;11.90;82.40;;;;;;1882240;76;21125;-48
2021/10/03 02:51:27;;;;;;;4.35;3.67;;;11.80;82.40;;;;;;1882367;75;21040;-48
2021/10/03 02:53:57;;;;;;;7.30;3.52;;;11.90;82.50;;;;;;1882299;75;21118;-46
2021/10/03 02:56:29;;;;;;;4.30;3.80;;;11.90;82.40;;;;;;1882462;75;21028;-46
2021/10/03 02:58:59;;;;;;;7.12;3.77;;;11.80;82.20;;;;;;1882356;75;21008;-49
2021/10/03 03:01:28;;;;;;;6.78;3.90;;;11.80;82.40;;;;;;1882350;75;21024;-48
2021/10/03 03:03:57;;;;;;;5.03;4.53;;;11.90;82.50;;;;;;1882404;76;21109;-48
2021/10/03 03:06:27;;;;;;;9.58;4.03;;;11.90;82.50;;;;;;1882412;76;21094;-48
2021/10/03 03:08:56;;;;;;;6.15;4.17;;;11.90;82.40;;;;;;1882232;75;21020;-47
2021/10/03 03:11:26;;;;;;;5.97;3.87;;;11.90;82.40;;;;;;1882335;75;21098;-49
2021/10/03 03:13:55;;;;;;;5.42;3.75;;;11.90;82.50;;;;;;1882323;75;21008;-48
2021/10/03 03:16:25;;;;;;;9.83;3.95;;;11.90;82.20;;;;;;1882331;75;21071;-49
2021/10/03 03:18:54;;;;;;;9.20;4.20;;;11.90;82.10;;;;;;1882458;75;21149;-46
2021/10/03 03:21:25;;;;;;;7.42;4.28;;;11.90;82.30;;;;;;1882441;75;21098;-49
2021/10/03 03:23:54;;;;;;;5.08;3.67;;;11.90;82.30;;;;;;1882287;75;21047;-49
2021/10/03 03:26:23;;;;;;;7.95;3.60;;;11.90;82.30;;;;;;1882432;76;21516;-49
2021/10/03 03:28:53;;;;;;;11.45;3.83;;;11.90;82.30;;;;;;1882317;75;21056;-48
2021/10/03 03:31:22;;;;;;;8.23;5.00;;;11.80;82.20;;;;;;1879419;75;21053;-48
2021/10/03 03:33:51;;;;;;;10.25;5.10;;;11.90;82.40;;;;;;1872890;77;21083;-48
2021/10/03 03:36:21;;;;;;;6.20;3.58;;;11.90;82.30;;;;;;1872958;76;21029;-48
2021/10/03 03:38:51;;;;;;;8.18;4.40;;;11.90;82.30;;;;;;1872817;75;21036;-50
2021/10/03 03:41:20;;;;;;;10.23;4.20;;;11.90;82.20;;;;;;1872840;76;21020;-49
2021/10/03 03:43:50;;;;;;;6.08;3.85;;;11.90;82.40;;;;;;1872828;77;21028;-47
2021/10/03 03:46:20;;;;;;;8.80;4.15;;;11.90;82.40;;;;;;1872832;75;21181;-49
2021/10/03 03:48:49;;;;;;;8.65;3.90;;;11.90;82.60;;;;;;1872757;75;21017;-48
2021/10/03 03:51:19;;;;;;;7.80;4.47;;;11.90;82.50;;;;;;1872825;75;21056;-50
2021/10/03 03:53:48;;;;;;;4.15;3.65;;;11.90;83.00;;;;;;1872751;76;21116;-49
2021/10/03 03:56:17;;;;;;;8.50;4.22;;;11.90;82.30;;;;;;1872918;77;21008;-49
2021/10/03 03:58:47;;;;;;;5.28;4.17;;;11.90;82.10;;;;;;1872786;77;21033;-47
2021/10/03 04:01:16;;;;;;;5.90;3.72;;;11.80;82.20;;;;;;1872806;77;21154;-50
2021/10/03 04:03:45;;;;;;;7.47;4.20;;;11.90;82.30;;;;;;1872845;77;21056;-49
2021/10/03 04:06:15;;;;;;;10.03;4.15;;;11.90;82.20;;;;;;1872883;76;21041;-48
2021/10/03 04:08:44;;;;;;;4.70;3.67;;;11.80;82.10;;;;;;1872732;77;21028;-46
2021/10/03 04:11:14;;;;;;;6.35;4.55;;;11.80;82.20;;;;;;1872726;75;21090;-47
2021/10/03 04:13:43;;;;;;;10.65;4.60;;;11.80;82.20;;;;;;1872930;77;21095;-49
2021/10/03 04:16:12;;;;;;;7.03;4.50;;;11.80;82.30;;;;;;1872921;76;21087;-48
2021/10/03 04:18:42;;;;;;;10.15;5.80;;;11.80;82.30;;;;;;1872857;75;21033;-48
2021/10/03 04:21:12;;;;;;;9.50;6.22;;;11.80;82.30;;;;;;1872801;77;21029;-50
2021/10/03 04:23:41;;;;;;;11.88;6.37;;;11.90;82.20;;;;;;1872896;77;21537;-49
2021/10/03 04:26:11;;;;;;;13.43;8.08;;;11.80;82.10;;;;;;1872807;75;21001;-46
2021/10/03 04:28:40;;;;;;;20.55;11.70;;;11.80;82.20;;;;;;1872746;77;21110;-46
2021/10/03 04:31:11;;;;;;;17.60;9.75;;;11.80;82.10;;;;;;1872865;75;21005;-47
2021/10/03 04:33:44;;;;;;;33.63;15.63;;;11.80;82.40;;;;;;1872866;75;21094;-47
2021/10/03 04:36:13;;;;;;;20.37;9.68;;;11.80;82.40;;;;;;1872778;75;21103;-51
2021/10/03 04:38:43;;;;;;;27.40;11.78;;;11.80;82.50;;;;;;1872806;75;21007;-48
2021/10/03 04:41:13;;;;;;;15.58;7.70;;;11.80;82.40;;;;;;1872781;75;21022;-49
2021/10/03 04:43:42;;;;;;;17.27;7.40;;;11.80;82.50;;;;;;1872867;76;21099;-47
2021/10/03 04:46:12;;;;;;;18.35;6.03;;;11.80;82.40;;;;;;1872892;75;21023;-50
2021/10/03 04:48:42;;;;;;;16.15;5.95;;;11.80;82.40;;;;;;1872686;75;21095;-50
2021/10/03 04:51:11;;;;;;;9.23;6.47;;;11.80;82.30;;;;;;1872778;77;21075;-49
2021/10/03 04:53:40;;;;;;;13.05;6.70;;;11.80;82.30;;;;;;1872877;76;21025;-48
2021/10/03 04:56:10;;;;;;;10.03;6.28;;;11.80;82.40;;;;;;1872786;75;21072;-47
2021/10/03 04:58:40;;;;;;;11.97;6.95;;;11.80;82.40;;;;;;1872748;77;21029;-47
2021/10/03 05:01:11;;;;;;;9.58;5.58;;;11.80;82.50;;;;;;1872853;75;21090;-48
2021/10/03 05:03:40;;;;;;;10.40;6.62;;;11.80;82.40;;;;;;1872830;76;21536;-50
2021/10/03 05:06:10;;;;;;;10.00;5.90;;;11.90;82.50;;;;;;1872797;76;21036;-46
2021/10/03 05:08:39;;;;;;;9.68;5.03;;;11.80;82.50;;;;;;1872722;75;21052;-48
2021/10/03 05:11:09;;;;;;;9.33;5.87;;;11.90;82.50;;;;;;1872900;76;21095;-50
2021/10/03 05:13:38;;;;;;;15.65;6.75;;;11.80;82.60;;;;;;1872799;75;21122;-49
2021/10/03 05:16:07;;;;;;;8.68;5.95;;;11.90;82.80;;;;;;1872824;75;21542;-50
2021/10/03 05:18:37;;;;;;;8.65;6.08;;;11.90;82.80;;;;;;1872920;77;21119;-48
2021/10/03 05:21:06;;;;;;;12.03;5.53;;;11.90;82.90;;;;;;1872855;76;21084;-47
2021/10/03 05:23:36;;;;;;;14.15;7.80;;;11.80;82.80;;;;;;1872854;77;21076;-47
2021/10/03 05:26:05;;;;;;;10.05;6.97;;;11.90;83.30;;;;;;1872813;76;20997;-46
2021/10/03 05:28:35;;;;;;;11.78;6.25;;;11.90;83.20;;;;;;1872903;77;21053;-48
2021/10/03 05:31:04;;;;;;;8.95;5.50;;;12.00;83.40;;;;;;1872874;76;21032;-48
2021/10/03 05:33:35;;;;;;;13.32;6.92;;;12.00;83.20;;;;;;1872826;75;21056;-49
2021/10/03 05:36:05;;;;;;;7.95;5.92;;;12.00;83.10;;;;;;1872964;76;21086;-48
2021/10/03 05:38:34;;;;;;;7.45;5.87;;;12.10;83.30;;;;;;1872814;77;21028;-47
2021/10/03 05:41:04;;;;;;;13.68;7.12;;;12.10;83.40;;;;;;1872964;75;21036;-48
2021/10/03 05:43:36;;;;;;;10.00;6.47;;;12.20;83.60;;;;;;1872797;75;21033;-48
2021/10/03 05:46:05;;;;;;;20.68;10.75;;;12.20;83.70;;;;;;1872757;76;21036;-48
2021/10/03 05:48:35;;;;;;;20.17;12.50;;;12.30;83.80;;;;;;1872378;76;21471;-49
2021/10/03 05:51:05;;;;;;;22.07;12.60;;;12.30;84.20;;;;;;1872850;75;21033;-50
2021/10/03 05:53:34;;;;;;;15.23;10.63;;;12.30;83.60;;;;;;1872943;76;21091;-46
2021/10/03 05:56:04;;;;;;;16.00;10.00;;;12.30;83.50;;;;;;1872873;76;21033;-45
2021/10/03 05:58:33;;;;;;;17.23;9.48;;;12.30;83.40;;;;;;1872956;77;21029;-46
2021/10/03 06:01:03;;;;;;;12.90;9.05;;;12.30;83.60;;;;;;1872948;75;21037;-47
2021/10/03 06:03:33;;;;;;;11.70;8.70;;;12.30;83.50;;;;;;1872831;75;21032;-46
2021/10/03 06:06:02;;;;;;;13.18;8.10;;;12.30;83.60;;;;;;1872992;75;21009;-48
2021/10/03 06:08:32;;;;;;;12.30;7.30;;;12.30;83.80;;;;;;1872965;75;21107;-49
2021/10/03 06:11:01;;;;;;;10.90;7.78;;;12.30;83.70;;;;;;1872858;75;21029;-46
2021/10/03 06:13:31;;;;;;;12.85;8.70;;;12.30;83.80;;;;;;1872882;75;21024;-46
2021/10/03 06:16:00;;;;;;;16.45;9.95;;;12.40;83.90;;;;;;1872841;75;21061;-48
2021/10/03 06:18:29;;;;;;;10.30;7.22;;;12.40;83.80;;;;;;1872870;75;21017;-46
2021/10/03 06:20:58;;;;;;;11.12;7.33;;;12.40;83.70;;;;;;1872950;75;21028;-46
2021/10/03 06:23:28;;;;;;;15.70;11.73;;;12.40;83.80;;;;;;1872858;75;21479;-46
2021/10/03 06:25:58;;;;;;;30.50;24.92;;;12.40;83.90;;;;;;1872842;75;21035;-46
2021/10/03 06:28:27;;;;;;;17.20;14.40;;;12.40;83.90;;;;;;1872785;77;21064;-49
2021/10/03 06:30:56;;;;;;;40.52;31.73;;;12.40;83.90;;;;;;1872796;77;21037;-46
2021/10/03 06:33:26;;;;;;;30.08;24.18;;;12.40;84.10;;;;;;1872736;75;21545;-49
2021/10/03 06:35:56;;;;;;;18.55;16.40;;;12.40;84.00;;;;;;1872796;76;21020;-46
2021/10/03 06:38:25;;;;;;;20.80;15.20;;;12.40;83.80;;;;;;1872908;75;21107;-45
2021/10/03 06:40:55;;;;;;;19.17;12.78;;;12.50;83.90;;;;;;1872816;77;21090;-47
2021/10/03 06:43:24;;;;;;;15.18;12.55;;;12.50;84.00;;;;;;1872779;76;21021;-49
2021/10/03 06:45:53;;;;;;;16.07;9.55;;;12.50;84.00;;;;;;1872785;75;21013;-46
2021/10/03 06:48:23;;;;;;;46.60;39.15;;;12.50;84.30;;;;;;1872999;76;21082;-47
2021/10/03 06:50:52;;;;;;;43.13;32.98;;;12.50;84.10;;;;;;1872969;75;21004;-47
2021/10/03 06:53:21;;;;;;;15.80;12.70;;;12.40;84.10;;;;;;1872991;77;21025;-47
2021/10/03 06:55:51;;;;;;;18.77;13.45;;;12.50;84.40;;;;;;1872953;76;21005;-45
2021/10/03 06:58:20;;;;;;;10.75;8.75;;;12.40;84.20;;;;;;1873002;77;21100;-47
2021/10/03 07:00:50;;;;;;;16.32;10.05;;;12.50;84.30;;;;;;1872926;75;21025;-47
2021/10/03 07:03:19;;;;;;;17.30;9.60;;;12.50;84.60;;;;;;1873015;75;21400;-49
2021/10/03 07:05:49;;;;;;;15.55;8.50;;;12.50;84.40;;;;;;1873024;75;21467;-47
2021/10/03 07:08:18;;;;;;;17.32;12.80;;;12.60;84.60;;;;;;1872821;75;21102;-48
2021/10/03 07:10:48;;;;;;;9.78;7.97;;;12.50;84.50;;;;;;1872869;76;21105;-48
2021/10/03 07:13:17;;;;;;;10.55;8.53;;;12.60;84.40;;;;;;1872923;75;21084;-45
2021/10/03 07:15:47;;;;;;;14.25;7.95;;;12.60;84.10;;;;;;1872933;76;21083;-48
2021/10/03 07:18:17;;;;;;;9.78;6.67;;;12.60;84.10;;;;;;1872928;76;21104;-45
2021/10/03 07:20:47;;;;;;;8.95;5.20;;;12.60;84.00;;;;;;1873038;75;21092;-45
2021/10/03 07:23:17;;;;;;;10.13;6.60;;;12.60;84.00;;;;;;1872821;75;21037;-47
2021/10/03 07:25:46;;;;;;;8.55;6.08;;;12.60;83.80;;;;;;1872965;77;21083;-47
2021/10/03 07:28:16;;;;;;;12.33;7.50;;;12.70;83.70;;;;;;1872828;75;21116;-46
2021/10/03 07:30:45;;;;;;;9.55;5.90;;;12.70;83.80;;;;;;1872835;75;21033;-47
2021/10/03 07:33:17;;;;;;;9.95;6.65;;;12.70;83.70;;;;;;1872606;75;21119;-46
2021/10/03 07:35:46;;;;;;;12.75;9.30;;;12.70;83.60;;;;;;1872882;77;21029;-46
2021/10/03 07:38:16;;;;;;;15.43;9.68;;;12.70;83.70;;;;;;1872903;76;21479;-48
2021/10/03 07:40:47;;;;;;;12.20;8.93;;;12.80;83.90;;;;;;1872857;76;21131;-47
2021/10/03 07:43:16;;;;;;;10.98;7.67;;;12.80;84.00;;;;;;1872932;75;21032;-46
2021/10/03 07:45:45;;;;;;;13.03;6.75;;;12.80;83.90;;;;;;1860608;75;21005;-47
2021/10/03 07:48:15;;;;;;;13.00;7.85;;;12.90;83.80;;;;;;1872875;77;21460;-47
2021/10/03 07:50:44;;;;;;;12.50;9.30;;;12.80;83.60;;;;;;1872778;77;21033;-48
2021/10/03 07:53:14;;;;;;;11.30;8.23;;;12.90;83.50;;;;;;1872825;75;21094;-48
2021/10/03 07:55:44;;;;;;;13.88;8.20;;;12.90;83.80;;;;;;1872773;75;21021;-47
2021/10/03 07:58:13;;;;;;;10.78;6.50;;;13.00;83.60;;;;;;1872813;75;21024;-47
2021/10/03 08:00:43;;;;;;;10.00;6.97;;;13.10;83.60;;;;;;1872842;76;21023;-46
2021/10/03 08:03:13;;;;;;;8.90;6.47;;;13.10;83.20;;;;;;1872866;75;21008;-46
2021/10/03 08:05:44;;;;;;;9.20;6.58;;;13.20;83.10;;;;;;1872762;76;21025;-49
2021/10/03 08:08:13;;;;;;;8.90;6.00;;;13.30;83.00;;;;;;1872758;75;21088;-50
2021/10/03 08:10:43;;;;;;;9.03;6.58;;;13.30;82.50;;;;;;1872813;75;21024;-49
2021/10/03 08:13:12;;;;;;;12.68;7.95;;;13.40;82.30;;;;;;1872572;76;21173;-46
2021/10/03 08:15:42;;;;;;;13.85;7.90;;;13.40;82.20;;;;;;1872861;76;21029;-48
2021/10/03 08:18:11;;;;;;;9.95;6.25;;;13.40;82.30;;;;;;1872838;76;21033;-48
2021/10/03 08:20:42;;;;;;;9.88;6.83;;;13.40;82.00;;;;;;1872789;75;21025;-47
2021/10/03 08:23:11;;;;;;;9.58;6.65;;;13.40;81.70;;;;;;1872716;75;21103;-49
2021/10/03 08:25:41;;;;;;;13.40;7.83;;;13.40;81.70;;;;;;1872907;76;21107;-48
2021/10/03 08:28:10;;;;;;;14.60;7.35;;;13.40;81.50;;;;;;1872713;77;21048;-47
2021/10/03 08:30:40;;;;;;;14.60;8.18;;;13.40;81.60;;;;;;1872736;75;21004;-49
2021/10/03 08:33:09;;;;;;;9.63;6.78;;;13.40;81.60;;;;;;1872681;75;21037;-47
2021/10/03 08:35:39;;;;;;;15.93;9.98;;;13.40;81.50;;;;;;1872762;75;21072;-49
2021/10/03 08:38:09;;;;;;;14.40;8.60;;;13.40;81.60;;;;;;1872742;76;21029;-47
2021/10/03 08:40:38;;;;;;;10.85;7.78;;;13.50;81.70;;;;;;1872842;75;21091;-47
2021/10/03 08:43:08;;;;;;;7.37;5.97;;;13.50;81.60;;;;;;1872816;75;21099;-47
2021/10/03 08:45:42;;;;;;;10.98;7.17;;;13.60;81.30;;;;;;1872865;77;21076;-49
2021/10/03 08:48:13;;;;;;;10.53;7.03;;;13.60;81.20;;;;;;1872795;75;21544;-45
2021/10/03 08:50:45;;;;;;;15.25;7.75;;;13.70;81.10;;;;;;1872850;75;21029;-48
2021/10/03 08:53:16;;;;;;;11.20;7.42;;;13.70;81.20;;;;;;1872918;75;21024;-50
2021/10/03 08:55:46;;;;;;;11.43;8.03;;;13.80;81.20;;;;;;1872921;76;21029;-49
2021/10/03 08:58:15;;;;;;;10.88;7.65;;;13.80;80.80;;;;;;1872953;77;21033;-46
2021/10/03 09:00:49;;;;;;;14.03;8.58;;;13.90;80.80;;;;;;1872919;75;21020;-48
2021/10/03 09:03:19;;;;;;;11.25;6.90;;;13.90;80.50;;;;;;1872863;76;21084;-45
2021/10/03 09:06:03;;;;;;;12.33;7.12;;;14.00;80.60;;;;;;1872949;76;21141;-46
2021/10/03 09:08:32;;;;;;;14.93;9.13;;;14.00;80.30;;;;;;1871978;76;21121;-46
2021/10/03 09:11:09;;;;;;;21.12;14.10;;;14.00;80.40;;;;;;1872813;75;21495;-46
2021/10/03 09:13:41;;;;;;;11.15;8.50;;;13.90;80.30;;;;;;1873032;75;21068;-46
2021/10/03 09:16:12;;;;;;;10.78;8.45;;;13.90;80.40;;;;;;1872949;75;21145;-49
2021/10/03 09:18:51;;;;;;;15.00;11.15;;;13.90;80.40;;;;;;1872929;75;21048;-47
2021/10/03 09:21:38;;;;;;;19.02;10.93;;;13.90;80.50;;;;;;1872916;77;21111;-46
2021/10/03 09:24:09;;;;;;;;;;;13.90;80.40;;;;;;1875551;76;21033;-46
2021/10/03 09:26:40;;;;;;;17.15;10.90;;;13.90;80.40;;;;;;1872924;75;20173;-46
2021/10/03 09:29:27;;;;;;;16.75;10.78;;;13.90;80.50;;;;;;1872829;75;21005;-45
2021/10/03 09:32:18;;;;;;;15.85;9.73;;;13.90;80.50;;;;;;1872750;76;21115;-46
2021/10/03 09:34:49;;;;;;;13.58;8.83;;;13.90;80.40;;;;;;1875913;75;21092;-49
2021/10/03 09:37:22;;;;;;;7.45;5.58;;;13.90;80.50;;;;;;1882298;76;21487;-50
2021/10/03 09:40:03;;;;;;;9.15;6.37;;;13.90;80.50;;;;;;1882351;76;21078;-49
2021/10/03 09:42:32;;;;;;;11.15;7.30;;;13.90;80.50;;;;;;1882357;75;21113;-49
2021/10/03 09:45:17;;;;;;;9.35;6.83;;;13.90;80.60;;;;;;1882308;75;21036;-49
2021/10/03 09:47:48;;;;;;;7.50;5.05;;;13.90;80.50;;;;;;1882553;76;21098;-46
2021/10/03 09:50:18;;;;;;;7.10;5.37;;;13.90;80.30;;;;;;1881123;76;21691;-47
2021/10/03 09:52:47;;;;;;;8.55;5.03;;;14.00;80.20;;;;;;1882351;75;21028;-49
2021/10/03 09:55:18;;;;;;;7.28;4.78;;;14.00;80.10;;;;;;1882343;76;21032;-47
2021/10/03 09:57:49;;;;;;;7.35;5.50;;;14.00;80.10;;;;;;1882340;76;21052;-47
2021/10/03 10:00:18;;;;;;;6.65;4.40;;;14.00;80.70;;;;;;1882379;75;21056;-47
2021/10/03 10:02:48;;;;;;;11.20;6.05;;;14.00;80.20;;;;;;1882293;75;21020;-47
2021/10/03 10:05:20;;;;;;;7.92;5.75;;;14.00;80.20;;;;;;1882312;76;21125;-49
2021/10/03 10:07:50;;;;;;;7.15;5.15;;;14.00;80.20;;;;;;1881367;75;21048;-47
2021/10/03 10:10:20;;;;;;;7.75;5.28;;;14.00;79.80;;;;;;1882389;76;21087;-45
2021/10/03 10:12:55;;;;;;;7.55;4.97;;;14.00;80.00;;;;;;1882301;75;21102;-48
2021/10/03 10:15:24;;;;;;;;;;;14.00;79.80;;;;;;1884351;75;21454;-50
2021/10/03 10:17:54;;;;;;;8.40;6.15;;;14.00;79.90;;;;;;1882239;75;20138;-47
2021/10/03 10:20:27;;;;;;;10.08;7.53;;;14.00;79.90;;;;;;1882322;75;21028;-49
2021/10/03 10:22:58;;;;;;;6.70;4.78;;;14.00;80.10;;;;;;1882297;75;21032;-47
2021/10/03 10:25:46;;;;;;;8.33;4.83;;;14.00;80.60;;;;;;1882267;75;21001;-46
2021/10/03 10:28:33;;;;;;;6.83;4.45;;;14.00;80.20;;;;;;1882140;75;21467;-50
2021/10/03 10:31:17;;;;;;;5.97;5.22;;;14.00;80.00;;;;;;1882385;75;21024;-50
2021/10/03 10:33:57;;;;;;;12.50;7.47;;;14.00;80.00;;;;;;1881704;75;21056;-48
2021/10/03 10:36:35;;;;;;;12.95;6.87;;;14.00;80.00;;;;;;1874824;75;21053;-46
2021/10/03 10:39:14;;;;;;;7.03;5.40;;;14.10;80.20;;;;;;1872760;76;21013;-49
2021/10/03 10:41:58;;;;;;;8.10;4.20;;;14.10;80.30;;;;;;1872945;75;20993;-49
2021/10/03 10:44:33;;;;;;;8.03;4.95;;;14.10;80.00;;;;;;1873109;75;21001;-46
2021/10/03 10:47:08;;;;;;;4.90;3.90;;;14.10;80.00;;;;;;1872386;75;21061;-46
2021/10/03 10:49:41;;;;;;;7.72;5.65;;;14.10;79.60;;;;;;1872918;76;21154;-47
2021/10/03 10:52:23;;;;;;;8.40;5.67;;;14.10;79.70;;;;;;1872747;77;21029;-46
2021/10/03 10:54:58;;;;;;;7.45;5.80;;;14.10;79.70;;;;;;1872940;75;21049;-47
2021/10/03 10:57:28;;;;;;;8.88;6.22;;;14.20;80.10;;;;;;1854996;75;21522;-46
2021/10/03 11:00:24;;;;;;;7.62;5.25;;;14.20;80.00;;;;;;1872943;75;21029;-48
2021/10/03 11:02:59;;;;;;;10.80;6.85;;;14.20;79.90;;;;;;1872934;75;21459;-49
2021/10/03 11:05:51;;;;;;;8.78;6.00;;;14.10;79.80;;;;;;1872146;75;21157;-49
2021/10/03 11:08:21;;;;;;;9.20;5.87;;;14.20;79.80;;;;;;1872034;76;21053;-49
2021/10/03 11:11:02;;;;;;;11.33;6.53;;;14.20;79.80;;;;;;1872877;76;21013;-46
2021/10/03 11:13:46;;;;;;;11.65;7.08;;;14.20;79.80;;;;;;1872777;75;21029;-46
2021/10/03 11:16:26;;;;;;;12.30;8.10;;;14.20;79.90;;;;;;1872753;75;21008;-48
2021/10/03 11:19:10;;;;;;;21.75;11.97;;;14.20;79.90;;;;;;1872848;75;21056;-46
2021/10/03 11:21:45;;;;;;;18.02;12.40;;;14.20;80.00;;;;;;1872713;75;21094;-46
2021/10/03 11:24:27;;;;;;;15.65;9.10;;;14.20;80.10;;;;;;1872174;75;21030;-46
2021/10/03 11:27:08;;;;;;;11.85;9.38;;;14.20;80.10;;;;;;1872906;77;21561;-46
2021/10/03 11:29:42;;;;;;;15.03;9.03;;;14.20;80.00;;;;;;1872781;76;21102;-49
2021/10/03 11:32:16;;;;;;;14.93;7.80;;;14.20;80.10;;;;;;1872709;75;21467;-47
2021/10/03 11:34:51;;;;;;;15.45;8.13;;;14.20;80.10;;;;;;1873049;75;21018;-49
2021/10/03 11:37:43;;;;;;;18.40;10.78;;;14.30;80.20;;;;;;1873973;75;21060;-46
2021/10/03 11:40:21;;;;;;;12.10;8.05;;;14.30;80.10;;;;;;1872864;75;21005;-47
2021/10/03 11:42:53;;;;;;;11.48;8.28;;;14.30;80.00;;;;;;1872176;75;21025;-47
2021/10/03 11:45:28;;;;;;;12.00;6.75;;;14.30;80.00;;;;;;1872412;76;21049;-46
2021/10/03 11:47:58;;;;;;;;;;;14.30;79.80;;;;;;1875595;75;21025;-46
2021/10/03 11:50:46;;;;;;;12.43;7.37;;;14.30;80.00;;;;;;1872896;75;20095;-46
2021/10/03 11:53:23;;;;;;;18.30;11.40;;;14.30;79.90;;;;;;1872545;75;21057;-47
2021/10/03 11:55:55;;;;;;;13.65;8.98;;;14.30;79.90;;;;;;1872779;75;21041;-46
2021/10/03 11:58:27;;;;;;;15.80;9.40;;;14.30;80.50;;;;;;1870430;76;21052;-46
2021/10/03 12:01:03;;;;;;;16.05;10.50;;;14.30;79.90;;;;;;1872723;75;21052;-47
2021/10/03 12:03:34;;;;;;;17.32;9.75;;;14.30;80.00;;;;;;1872786;76;20997;-45
2021/10/03 12:06:17;;;;;;;19.35;10.40;;;14.30;80.00;;;;;;1872801;75;21041;-46
2021/10/03 12:08:46;;;;;;;14.55;10.38;;;14.30;80.00;;;;;;1871862;75;21447;-49
2021/10/03 12:11:16;;;;;;;16.55;9.83;;;14.30;79.90;;;;;;1872995;77;21032;-48
2021/10/03 12:14:00;;;;;;;15.45;11.15;;;14.30;80.20;;;;;;1872780;76;21158;-48
2021/10/03 12:16:29;;;;;;;20.20;13.40;;;14.30;80.10;;;;;;1872812;75;21083;-48
2021/10/03 12:19:06;;;;;;;17.40;10.88;;;14.30;80.40;;;;;;1872740;75;21009;-51
2021/10/03 12:21:37;;;;;;;16.50;8.13;;;14.40;80.40;;;;;;1872812;76;21130;-50
2021/10/03 12:24:08;;;;;;;23.80;7.08;;;14.40;80.10;;;;;;1872763;75;21033;-50
2021/10/03 12:26:46;;;;;;;8.08;5.10;;;14.40;80.10;;;;;;1872857;75;21095;-47
2021/10/03 12:29:27;;;;;;;10.80;5.30;;;14.40;79.70;;;;;;1872882;76;21004;-47
2021/10/03 12:32:17;;;;;;;8.65;6.05;;;14.40;79.60;;;;;;1871205;75;21023;-49
2021/10/03 12:34:49;;;;;;;9.43;6.87;;;14.30;79.40;;;;;;1872631;76;21110;-50
2021/10/03 12:37:19;;;;;;;11.30;6.15;;;14.40;79.60;;;;;;1873777;75;21009;-49
2021/10/03 12:39:51;;;;;;;10.60;5.90;;;14.40;79.70;;;;;;1881892;76;21142;-47
2021/10/03 12:42:23;;;;;;;13.48;6.22;;;14.30;78.80;;;;;;1882245;75;21044;-50
2021/10/03 12:44:55;;;;;;;10.72;5.95;;;14.30;79.00;;;;;;1882115;75;21126;-46
2021/10/03 12:47:25;;;;;;;8.23;5.08;;;14.30;79.00;;;;;;1882105;75;21078;-49
2021/10/03 12:49:54;;;;;;;7.12;5.17;;;14.30;78.90;;;;;;1882121;75;21028;-50
2021/10/03 12:52:24;;;;;;;18.10;6.10;;;14.30;78.90;;;;;;1882170;75;21529;-50
2021/10/03 12:54:54;;;;;;;7.22;5.10;;;14.30;79.00;;;;;;1882068;75;21111;-47
2021/10/03 12:57:23;;;;;;;9.28;6.30;;;14.20;78.90;;;;;;1881997;76;21036;-48
2021/10/03 12:59:53;;;;;;;11.73;6.87;;;14.20;79.10;;;;;;1882084;75;21028;-50
2021/10/03 13:02:22;;;;;;;9.75;6.20;;;14.20;79.10;;;;;;1882234;75;21134;-47